createdAt,value
2023-05-08T00:02:44.560Z,11.47
2023-05-08T00:06:51.750Z,11.41
2023-05-08T00:10:54.837Z,11.42
2023-05-08T00:14:58.439Z,11.39
2023-05-08T00:19:02.378Z,11.30
2023-05-08T00:23:06.866Z,11.28
2023-05-08T00:27:10.125Z,11.24
2023-05-08T00:31:14.372Z,11.20
2023-05-08T00:35:17.776Z,11.16
2023-05-08T00:39:22.765Z,11.16
2023-05-08T00:43:28.581Z,11.10
2023-05-08T00:47:33.554Z,11.00
2023-05-08T00:51:37.206Z,10.98
2023-05-08T00:55:42.420Z,10.97
2023-05-08T00:59:47.816Z,10.95
2023-05-08T01:03:52.000Z,10.95
2023-05-08T01:07:55.412Z,10.96
2023-05-08T01:12:10.310Z,10.97
2023-05-08T01:16:17.752Z,10.99
2023-05-08T01:20:31.784Z,11.05
2023-05-08T01:25:06.463Z,11.08
2023-05-08T01:29:45.571Z,11.22
2023-05-08T01:33:57.019Z,11.32
2023-05-08T01:38:09.959Z,11.39
2023-05-08T01:42:20.682Z,11.49
2023-05-08T01:46:27.515Z,11.54
2023-05-08T01:50:38.384Z,11.60
2023-05-08T01:54:48.297Z,11.66
2023-05-08T01:58:54.581Z,11.71
2023-05-08T02:02:59.230Z,11.73
2023-05-08T02:07:05.277Z,11.80
2023-05-08T02:11:09.798Z,11.83
2023-05-08T02:15:15.523Z,11.87
2023-05-08T02:19:20.620Z,11.89
2023-05-08T02:23:28.458Z,11.93
2023-05-08T02:27:35.572Z,11.94
2023-05-08T02:31:40.613Z,11.93
2023-05-08T02:35:46.530Z,11.96
2023-05-08T02:39:55.487Z,11.97
2023-05-08T02:43:59.637Z,11.97
2023-05-08T02:48:12.623Z,11.99
2023-05-08T02:52:18.368Z,12.02
2023-05-08T02:56:36.355Z,12.02
2023-05-08T03:00:45.720Z,12.00
2023-05-08T03:04:55.260Z,11.97
2023-05-08T03:09:04.821Z,11.94
2023-05-08T03:13:12.184Z,11.92
2023-05-08T03:17:19.744Z,11.90
2023-05-08T03:21:27.488Z,11.91
2023-05-08T03:25:34.380Z,11.87
2023-05-08T03:29:41.161Z,11.87
2023-05-08T03:33:46.089Z,11.88
2023-05-08T03:37:49.664Z,11.87
2023-05-08T03:41:53.115Z,11.86
2023-05-08T03:46:00.455Z,11.87
2023-05-08T03:50:05.086Z,11.85
2023-05-08T03:54:08.274Z,11.87
2023-05-08T03:58:21.835Z,11.88
2023-05-08T04:02:34.938Z,11.89
2023-05-08T04:06:50.084Z,11.92
2023-05-08T04:11:04.832Z,11.94
2023-05-08T04:15:12.860Z,11.97
2023-05-08T04:19:23.212Z,12.01
2023-05-08T04:23:27.643Z,12.03
2023-05-08T04:27:31.840Z,12.07
2023-05-08T04:31:38.137Z,12.08
2023-05-08T04:35:42.678Z,12.09
2023-05-08T04:39:46.328Z,12.07
2023-05-08T04:43:50.838Z,12.10
2023-05-08T04:47:54.196Z,12.09
2023-05-08T04:51:58.976Z,12.12
2023-05-08T04:56:03.664Z,12.16
2023-05-08T05:00:11.325Z,12.20
2023-05-08T05:04:14.648Z,12.27
2023-05-08T05:08:19.301Z,12.32
2023-05-08T05:12:23.065Z,12.34
2023-05-08T05:16:26.689Z,12.39
2023-05-08T05:20:30.182Z,12.43
2023-05-08T05:24:36.550Z,12.46
2023-05-08T05:28:40.332Z,12.45
2023-05-08T05:32:44.269Z,12.48
2023-05-08T05:36:47.467Z,12.49
2023-05-08T05:40:52.486Z,12.52
2023-05-08T05:44:56.836Z,12.57
2023-05-08T05:49:00.330Z,12.63
2023-05-08T05:53:03.807Z,12.67
2023-05-08T05:57:09.197Z,12.71
2023-05-08T06:01:13.452Z,12.72
2023-05-08T06:05:17.135Z,12.81
2023-05-08T06:09:20.845Z,12.91
2023-05-08T06:13:26.174Z,13.00
2023-05-08T06:17:29.733Z,13.10
2023-05-08T06:21:33.158Z,13.23
2023-05-08T06:25:36.728Z,13.34
2023-05-08T06:29:41.629Z,13.48
2023-05-08T06:33:45.145Z,13.58
2023-05-08T06:37:48.659Z,13.70
2023-05-08T06:41:52.048Z,13.76
2023-05-08T06:45:56.650Z,13.84
2023-05-08T06:50:00.169Z,13.92
2023-05-08T06:54:05.833Z,13.97
2023-05-08T06:58:09.539Z,14.01
2023-05-08T07:02:16.606Z,14.13
2023-05-08T07:06:20.011Z,14.22
2023-05-08T07:10:23.871Z,14.33
2023-05-08T07:14:27.477Z,14.43
2023-05-08T07:18:32.612Z,14.54
2023-05-08T07:22:35.981Z,14.63
2023-05-08T07:26:39.688Z,14.72
2023-05-08T07:30:42.907Z,14.79
2023-05-08T07:34:48.820Z,14.88
2023-05-08T07:38:52.561Z,14.92
2023-05-08T07:42:57.550Z,15.01
2023-05-08T07:47:01.448Z,15.04
2023-05-08T07:51:07.078Z,15.11
2023-05-08T07:55:11.260Z,15.15
2023-05-08T07:59:14.958Z,15.24
2023-05-08T08:03:18.589Z,15.34
2023-05-08T08:07:23.387Z,15.47
2023-05-08T08:11:27.154Z,15.60
2023-05-08T08:15:30.618Z,15.73
2023-05-08T08:19:34.334Z,15.84
2023-05-08T08:23:39.801Z,15.97
2023-05-08T08:27:43.029Z,16.01
2023-05-08T08:31:46.793Z,16.13
2023-05-08T08:35:50.651Z,16.21
2023-05-08T08:39:56.377Z,16.26
2023-05-08T08:44:01.125Z,16.34
2023-05-08T08:48:06.882Z,16.44
2023-05-08T08:52:18.155Z,16.66
2023-05-08T08:56:25.009Z,16.96
2023-05-08T09:00:32.065Z,17.37
2023-05-08T09:04:35.649Z,17.70
2023-05-08T09:08:39.674Z,17.88
2023-05-08T09:12:45.378Z,18.06
2023-05-08T09:16:49.156Z,18.12
2023-05-08T09:20:52.561Z,18.18
2023-05-08T09:24:59.038Z,18.36
2023-05-08T09:29:18.528Z,18.68
2023-05-08T09:33:22.844Z,19.05
2023-05-08T09:37:27.590Z,19.44
2023-05-08T09:41:31.365Z,19.75
2023-05-08T09:45:39.113Z,19.91
2023-05-08T09:49:57.374Z,20.05
2023-05-08T09:54:04.344Z,20.29
2023-05-08T09:58:07.930Z,20.49
2023-05-08T10:02:17.708Z,20.78
2023-05-08T10:06:22.384Z,21.02
2023-05-08T10:10:29.422Z,21.20
2023-05-08T10:14:32.803Z,21.18
2023-05-08T10:18:41.025Z,21.33
2023-05-08T10:22:45.923Z,21.45
2023-05-08T10:27:07.037Z,21.64
2023-05-08T10:31:14.175Z,21.93
2023-05-08T10:35:20.604Z,22.13
2023-05-08T10:39:25.424Z,22.11
2023-05-08T10:43:31.315Z,22.20
2023-05-08T10:47:46.727Z,22.17
2023-05-08T10:52:01.450Z,22.03
2023-05-08T10:56:04.839Z,22.10
2023-05-08T11:00:09.355Z,22.23
2023-05-08T11:04:21.924Z,22.46
2023-05-08T11:08:28.960Z,22.56
2023-05-08T11:12:34.132Z,22.50
2023-05-08T11:17:07.021Z,22.71
2023-05-08T11:21:16.674Z,22.95
2023-05-08T11:25:45.003Z,23.03
2023-05-08T11:30:25.905Z,23.18
2023-05-08T11:34:53.126Z,23.38
2023-05-08T11:39:12.763Z,23.66
2023-05-08T11:43:45.062Z,23.99
2023-05-08T11:47:48.391Z,24.29
2023-05-08T11:51:55.321Z,24.46
2023-05-08T11:55:59.978Z,24.54
2023-05-08T12:00:09.915Z,24.49
2023-05-08T12:04:15.014Z,24.35
2023-05-08T12:08:21.195Z,24.15
2023-05-08T12:12:24.453Z,23.96
2023-05-08T12:16:29.168Z,23.88
2023-05-08T12:20:33.924Z,23.92
2023-05-08T12:24:37.742Z,23.95
2023-05-08T12:28:42.896Z,24.05
2023-05-08T12:32:48.634Z,24.10
2023-05-08T12:37:03.644Z,24.15
2023-05-08T12:41:09.136Z,24.18
2023-05-08T12:45:19.173Z,24.29
2023-05-08T12:49:29.208Z,24.44
2023-05-08T12:53:34.224Z,24.33
2023-05-08T12:57:38.906Z,24.30
2023-05-08T13:01:42.398Z,24.11
2023-05-08T13:05:47.735Z,24.06
2023-05-08T13:10:03.724Z,23.95
2023-05-08T13:14:07.519Z,23.80
2023-05-08T13:18:11.110Z,23.65
2023-05-08T13:22:15.825Z,23.53
2023-05-08T13:26:19.472Z,23.46
2023-05-08T13:30:24.353Z,23.41
2023-05-08T13:34:27.618Z,23.38
2023-05-08T13:38:35.015Z,23.35
2023-05-08T13:42:38.260Z,23.30
2023-05-08T13:46:41.950Z,23.23
2023-05-08T13:50:45.219Z,23.13
2023-05-08T13:54:50.386Z,22.98
2023-05-08T13:58:54.450Z,22.84
2023-05-08T14:02:58.189Z,22.75
2023-05-08T14:07:01.848Z,22.72
2023-05-08T14:11:06.962Z,22.71
2023-05-08T14:15:12.242Z,22.74
2023-05-08T14:19:16.563Z,22.79
2023-05-08T14:23:20.342Z,22.92
2023-05-08T14:27:25.780Z,23.03
2023-05-08T14:31:29.091Z,23.07
2023-05-08T14:35:33.288Z,23.09
2023-05-08T14:39:36.589Z,22.91
2023-05-08T14:43:42.990Z,22.77
2023-05-08T14:47:46.633Z,22.61
2023-05-08T14:51:52.294Z,22.37
2023-05-08T14:55:56.351Z,22.30
2023-05-08T15:00:01.510Z,22.15
2023-05-08T15:04:04.649Z,22.07
2023-05-08T15:08:09.008Z,22.02
2023-05-08T15:12:12.082Z,22.01
2023-05-08T15:16:17.123Z,21.98
2023-05-08T15:20:21.150Z,21.90
2023-05-08T15:24:25.477Z,21.84
2023-05-08T15:28:29.228Z,21.76
2023-05-08T15:32:35.173Z,21.65
2023-05-08T15:36:38.472Z,21.63
2023-05-08T15:40:42.010Z,21.49
2023-05-08T15:48:53.071Z,21.30
2023-05-08T15:52:55.951Z,21.21
2023-05-08T15:56:59.168Z,21.14
2023-05-08T16:01:02.647Z,21.03
2023-05-08T16:05:08.746Z,20.95
2023-05-08T16:09:11.849Z,20.82
2023-05-08T16:13:15.427Z,20.76
2023-05-08T16:17:18.663Z,20.65
2023-05-08T16:21:23.521Z,20.56
2023-05-08T16:25:27.735Z,20.46
2023-05-08T16:29:31.161Z,20.38
2023-05-08T16:33:34.316Z,20.26
2023-05-08T16:37:43.637Z,20.17
2023-05-08T16:45:52.241Z,19.99
2023-05-08T16:49:55.562Z,19.83
2023-05-08T16:54:00.219Z,19.72
2023-05-08T16:58:04.635Z,19.55
2023-05-08T17:02:09.132Z,19.44
2023-05-08T17:06:12.466Z,19.31
2023-05-08T17:10:17.730Z,19.19
2023-05-08T17:14:21.055Z,19.05
2023-05-08T17:18:25.039Z,18.92
2023-05-08T17:22:30.843Z,18.78
2023-05-08T17:26:35.649Z,18.63
2023-05-08T17:30:38.890Z,18.50
2023-05-08T17:34:42.484Z,18.32
2023-05-08T17:38:46.595Z,18.19
2023-05-08T17:42:51.802Z,18.09
2023-05-08T17:46:55.723Z,17.97
2023-05-08T17:51:00.493Z,17.87
2023-05-08T17:55:04.057Z,17.76
2023-05-08T17:59:09.466Z,17.66
2023-05-08T18:03:12.934Z,17.57
2023-05-08T18:07:16.819Z,17.44
2023-05-08T18:11:21.592Z,17.35
2023-05-08T18:15:26.727Z,17.25
2023-05-08T18:19:30.596Z,17.16
2023-05-08T18:23:33.731Z,17.07
2023-05-08T18:27:37.494Z,16.96
2023-05-08T18:31:42.236Z,16.88
2023-05-08T18:35:46.100Z,16.79
2023-05-08T18:39:49.434Z,16.69
2023-05-08T18:43:53.148Z,16.62
2023-05-08T18:47:58.210Z,16.59
2023-05-08T18:52:01.746Z,16.50
2023-05-08T18:56:05.582Z,16.42
2023-05-08T19:00:10.721Z,16.38
2023-05-08T19:04:15.733Z,16.32
2023-05-08T19:08:19.522Z,16.30
2023-05-08T19:12:23.477Z,16.26
2023-05-08T19:16:28.999Z,16.20
2023-05-08T19:20:34.821Z,16.16
2023-05-08T19:24:38.347Z,16.09
2023-05-08T19:28:42.315Z,15.98
2023-05-08T19:32:47.795Z,15.94
2023-05-08T19:36:52.910Z,15.88
2023-05-08T19:40:58.146Z,15.80
2023-05-08T19:45:01.919Z,15.73
2023-05-08T19:49:05.692Z,15.67
2023-05-08T19:53:11.627Z,15.63
2023-05-08T19:57:15.766Z,15.58
2023-05-08T20:01:19.499Z,15.52
2023-05-08T20:05:23.667Z,15.45
2023-05-08T20:09:28.406Z,15.39
2023-05-08T20:13:33.307Z,15.30
2023-05-08T20:17:37.021Z,15.21
2023-05-08T20:21:41.448Z,15.12
2023-05-08T20:25:47.929Z,15.04
2023-05-08T20:29:51.520Z,14.96
2023-05-08T20:33:55.242Z,14.89
2023-05-08T20:37:58.819Z,14.82
2023-05-08T20:42:04.234Z,14.78
2023-05-08T20:46:07.736Z,14.72
2023-05-08T20:50:12.417Z,14.65
2023-05-08T20:54:16.396Z,14.59
2023-05-08T20:58:22.944Z,14.53
2023-05-08T21:02:26.284Z,14.46
2023-05-08T21:06:30.779Z,14.41
2023-05-08T21:10:34.321Z,14.38
2023-05-08T21:14:39.734Z,14.36
2023-05-08T21:18:43.243Z,14.32
2023-05-08T21:22:47.795Z,14.31
2023-05-08T21:26:50.930Z,14.30
2023-05-08T21:30:56.548Z,14.31
2023-05-08T21:34:59.848Z,14.30
2023-05-08T21:39:03.935Z,14.30
2023-05-08T21:43:07.703Z,14.31
2023-05-08T21:47:12.941Z,14.35
2023-05-08T21:51:16.099Z,14.36
2023-05-08T21:55:20.368Z,14.39
2023-05-08T21:59:23.341Z,14.41
2023-05-08T22:03:28.521Z,14.41
2023-05-08T22:07:31.765Z,14.40
2023-05-08T22:11:35.688Z,14.39
2023-05-08T22:15:38.983Z,14.39
2023-05-08T22:19:43.681Z,14.40
2023-05-08T22:23:47.132Z,14.37
2023-05-08T22:27:51.140Z,14.32
2023-05-08T22:31:54.398Z,14.28
2023-05-08T22:35:59.868Z,14.20
2023-05-08T22:40:03.397Z,14.15
2023-05-08T22:44:07.331Z,14.09
2023-05-08T22:48:10.571Z,14.00
2023-05-08T22:52:15.669Z,13.95
2023-05-08T22:56:19.159Z,13.89
2023-05-08T23:00:23.702Z,13.81
2023-05-08T23:04:27.099Z,13.76
2023-05-08T23:08:32.597Z,13.69
2023-05-08T23:12:35.633Z,13.61
2023-05-08T23:16:39.552Z,13.59
2023-05-08T23:20:42.719Z,13.50
2023-05-08T23:24:48.027Z,13.45
2023-05-08T23:28:51.219Z,13.40
2023-05-08T23:32:55.265Z,13.34
2023-05-08T23:36:58.746Z,13.28
2023-05-08T23:41:04.100Z,13.21
2023-05-08T23:45:08.971Z,13.14
2023-05-08T23:49:12.990Z,13.08
2023-05-08T23:53:16.721Z,13.04
2023-05-08T23:57:22.129Z,13.00
